Time;durP1;ratioP1;P1;durP2;ratioP2;P2;SDS_P1;SDS_P2;PMS_P1;PMS_P2;Temp;Humidity;BMP_temperature;BMP_pressure;BME280_temperature;BME280_humidity;BME280_pressure;Samples;Min_cycle;Max_cycle;Signal;HPM_P1;HPM_P2
2024/02/04 00:00:46;;;;;;;2.23;1.57;;;;;;;9.78;100.00;101713.41;2087983;28;20262;-64
2024/02/04 00:01:47;;;;;;;2.37;1.50;;;;;;;10.53;100.00;101854.00;2088709;28;20197;-64
2024/02/04 00:02:47;;;;;;;2.50;1.60;;;;;;;10.38;100.00;101831.13;2089786;28;20464;-64
2024/02/04 00:03:48;;;;;;;4.43;1.80;;;;;;;10.49;100.00;101851.25;2089189;28;20184;-64
2024/02/04 00:04:48;;;;;;;4.50;1.63;;;;;;;10.56;100.00;101859.53;2089394;28;20184;-64
2024/02/04 00:05:49;;;;;;;3.20;1.60;;;;;;;10.51;100.00;101864.72;2089238;28;20727;-64
2024/02/04 00:06:49;;;;;;;2.47;1.43;;;;;;;10.02;100.00;101768.69;2088053;28;20216;-65
2024/02/04 00:07:50;;;;;;;2.23;1.47;;;;;;;10.50;100.00;101849.28;2089063;28;20188;-64
2024/02/04 00:08:50;;;;;;;2.50;1.70;;;;;;;10.47;100.00;101852.84;2087940;28;20201;-64
2024/02/04 00:09:51;;;;;;;2.07;1.20;;;;;;;10.46;100.00;101852.06;2088719;28;20208;-65
2024/02/04 00:10:51;;;;;;;3.10;1.70;;;;;;;10.42;100.00;101845.75;2089569;28;20650;-64
2024/02/04 00:11:52;;;;;;;2.10;1.57;;;;;;;10.26;100.00;101834.31;2088161;28;20263;-64
2024/02/04 00:12:52;;;;;;;2.33;1.40;;;;;;;10.08;100.00;101805.91;2089387;28;20249;-64
2024/02/04 00:13:53;;;;;;;2.57;1.50;;;;;;;10.38;100.00;101844.19;2088449;28;20238;-64
2024/02/04 00:14:53;;;;;;;2.60;1.43;;;;;;;10.44;100.00;101851.69;2089860;28;20672;-64
2024/02/04 00:15:54;;;;;;;3.20;1.50;;;;;;;10.33;100.00;101837.06;2088375;28;20653;-64
2024/02/04 00:16:54;;;;;;;3.13;1.97;;;;;;;10.36;100.00;101849.34;2089211;28;20192;-65
2024/02/04 00:17:55;;;;;;;3.20;1.70;;;;;;;10.13;100.00;101810.22;2089126;28;20199;-64
2024/02/04 00:18:56;;;;;;;2.37;1.30;;;;;;;10.36;100.00;101843.81;2088987;28;20238;-64
2024/02/04 00:19:57;;;;;;;2.17;1.30;;;;;;;10.28;100.00;101831.94;2089125;28;20587;-64
2024/02/04 00:20:57;;;;;;;2.33;1.53;;;;;;;9.95;100.00;101787.31;2089109;28;20199;-64
2024/02/04 00:21:57;;;;;;;1.67;1.00;;;;;;;10.17;100.00;101828.44;2088989;28;20192;-64
2024/02/04 00:22:58;;;;;;;2.60;1.30;;;;;;;9.90;100.00;101796.81;2089758;28;20200;-64
2024/02/04 00:23:59;;;;;;;1.73;1.20;;;;;;;10.26;100.00;101836.31;2089236;28;20187;-63
2024/02/04 00:25:04;;;;;;;2.23;1.20;;;;;;;10.36;100.00;101841.03;2088430;28;20279;-65
2024/02/04 00:26:05;;;;;;;2.60;1.40;;;;;;;10.02;100.00;101796.38;2086951;28;20783;-63
2024/02/04 00:27:05;;;;;;;1.40;1.00;;;;;;;10.39;100.00;101846.56;2089180;28;20937;-64
2024/02/04 00:28:06;;;;;;;3.37;1.53;;;;;;;9.71;100.00;101728.06;2088336;28;20188;-65
2024/02/04 00:29:06;;;;;;;2.23;1.23;;;;;;;10.47;100.00;101845.34;2087305;28;20577;-64
2024/02/04 00:30:07;;;;;;;3.07;1.50;;;;;;;9.75;100.00;101725.28;2087834;28;20184;-63
2024/02/04 00:31:08;;;;;;;2.13;1.27;;;;;;;10.59;100.00;101835.78;2089911;28;20238;-64
2024/02/04 00:32:08;;;;;;;3.77;1.40;;;;;;;10.63;100.00;101840.13;2089466;28;20196;-64
2024/02/04 00:33:09;;;;;;;2.10;1.30;;;;;;;10.59;100.00;101833.78;2089120;28;20261;-64
2024/02/04 00:34:09;;;;;;;1.80;1.10;;;;;;;10.64;100.00;101841.69;2087410;28;20610;-64
2024/02/04 00:35:10;;;;;;;2.67;1.47;;;;;;;10.73;100.00;101844.81;2088011;28;20684;-64
2024/02/04 00:36:10;;;;;;;3.00;1.37;;;;;;;10.72;100.00;101837.69;2088798;28;20211;-64
2024/02/04 00:37:11;;;;;;;2.87;1.30;;;;;;;10.61;100.00;101819.53;2087797;28;20274;-64
2024/02/04 00:38:11;;;;;;;2.93;1.53;;;;;;;10.62;100.00;101824.69;2087156;28;20188;-64
2024/02/04 00:39:12;;;;;;;1.33;1.00;;;;;;;10.79;100.00;101836.84;2089370;28;20234;-64
2024/02/04 00:40:12;;;;;;;2.10;1.00;;;;;;;10.79;100.00;101840.44;2089383;28;20208;-64
2024/02/04 00:41:13;;;;;;;1.37;0.90;;;;;;;10.69;100.00;101830.19;2088390;28;20662;-65
2024/02/04 00:42:13;;;;;;;1.53;0.93;;;;;;;10.17;100.00;101742.56;2088039;28;20196;-63
2024/02/04 00:43:14;;;;;;;1.67;1.10;;;;;;;10.84;100.00;101848.31;2088905;28;20195;-64
2024/02/04 00:44:14;;;;;;;2.50;1.13;;;;;;;10.90;100.00;101849.47;2087353;28;20185;-64
2024/02/04 00:45:16;;;;;;;1.90;1.00;;;;;;;10.91;100.00;101861.38;2088980;28;20184;-64
2024/02/04 00:46:16;;;;;;;0.83;0.60;;;;;;;10.93;100.00;101857.00;2088334;28;20681;-63
2024/02/04 00:47:17;;;;;;;1.57;0.90;;;;;;;10.85;100.00;101827.72;2089014;28;20811;-64
2024/02/04 00:48:17;;;;;;;3.53;1.37;;;;;;;10.99;100.00;101849.81;2088803;28;20635;-64
2024/02/04 00:49:18;;;;;;;1.43;0.87;;;;;;;11.08;100.00;101866.00;2089347;28;20177;-65
2024/02/04 00:50:18;;;;;;;1.17;0.87;;;;;;;11.01;100.00;101836.31;2087805;28;20184;-64
2024/02/04 00:51:19;;;;;;;1.50;0.93;;;;;;;11.16;100.00;101854.47;2087848;28;20192;-64
2024/02/04 00:52:20;;;;;;;3.47;0.90;;;;;;;11.15;100.00;101855.66;2088906;28;20747;-63
2024/02/04 00:53:20;;;;;;;1.60;1.10;;;;;;;11.08;100.00;101833.53;2088986;28;20855;-64
2024/02/04 00:54:21;;;;;;;3.97;1.10;;;;;;;11.27;100.00;101851.63;2088432;28;20184;-65
2024/02/04 00:55:21;;;;;;;1.47;0.90;;;;;;;11.26;100.00;101852.78;2088519;28;20586;-64
2024/02/04 00:56:22;;;;;;;1.17;0.80;;;;;;;11.27;100.00;101846.84;2087214;28;20566;-64
2024/02/04 00:57:22;;;;;;;4.37;0.70;;;;;;;11.30;100.00;101842.47;2088802;28;20592;-64
2024/02/04 00:58:23;;;;;;;2.60;0.67;;;;;;;11.30;100.00;101842.47;2088621;28;20188;-64
2024/02/04 00:59:23;;;;;;;1.43;0.77;;;;;;;11.32;100.00;101853.97;2088706;28;20216;-63
2024/02/04 01:00:24;;;;;;;1.20;0.60;;;;;;;11.32;100.00;101848.41;2088715;28;20184;-64
2024/02/04 01:01:25;;;;;;;2.07;1.00;;;;;;;10.67;100.00;101732.75;2088707;28;20213;-64
2024/02/04 01:02:26;;;;;;;1.10;0.70;;;;;;;11.37;100.00;101848.75;2088981;28;20238;-64
2024/02/04 01:03:26;;;;;;;1.90;1.00;;;;;;;11.36;100.00;101847.19;2088907;28;20572;-64
2024/02/04 01:04:27;;;;;;;1.30;0.70;;;;;;;11.30;100.00;101821.06;2085907;28;20191;-64
2024/02/04 01:05:27;;;;;;;1.63;0.80;;;;;;;11.38;100.00;101830.13;2088192;28;20189;-64
2024/02/04 01:06:29;;;;;;;1.57;0.57;;;;;;;11.31;100.00;101835.72;2088675;28;20202;-65
2024/02/04 01:07:29;;;;;;;1.23;0.70;;;;;;;11.24;100.00;101808.84;2089144;28;20192;-65
2024/02/04 01:08:30;;;;;;;0.77;0.57;;;;;;;11.37;100.00;101829.31;2088574;28;20503;-64
2024/02/04 01:09:30;;;;;;;1.20;1.00;;;;;;;11.34;100.00;101826.59;2089231;28;20223;-64
2024/02/04 01:10:31;;;;;;;1.33;0.80;;;;;;;11.27;100.00;101837.75;2087885;28;20189;-65
2024/02/04 01:11:31;;;;;;;1.83;1.00;;;;;;;11.26;100.00;101834.19;2088072;28;20549;-64
2024/02/04 01:12:32;;;;;;;1.30;0.70;;;;;;;11.33;100.00;101836.88;2089067;28;20188;-64
2024/02/04 01:13:32;;;;;;;0.83;0.73;;;;;;;10.68;100.00;101725.22;2087998;28;20204;-64
2024/02/04 01:14:33;;;;;;;1.77;0.80;;;;;;;11.24;100.00;101813.56;2088247;28;20200;-64
2024/02/04 01:15:33;;;;;;;1.90;0.97;;;;;;;11.36;100.00;101833.31;2088717;28;20567;-64
2024/02/04 01:16:34;;;;;;;1.60;0.80;;;;;;;11.38;100.00;101819.78;2088149;28;20283;-64
2024/02/04 01:17:34;;;;;;;2.33;1.00;;;;;;;11.34;100.00;101830.16;2088386;28;20197;-64
2024/02/04 01:18:35;;;;;;;1.50;1.10;;;;;;;11.30;100.00;101809.16;2087724;28;20244;-64
2024/02/04 01:19:35;;;;;;;1.60;1.00;;;;;;;11.28;100.00;101823.44;2088868;28;20219;-64
2024/02/04 01:20:36;;;;;;;1.47;0.90;;;;;;;11.26;100.00;101814.75;2089494;28;20267;-64
2024/02/04 01:21:36;;;;;;;1.30;0.90;;;;;;;11.15;100.00;101808.50;2088738;28;20224;-64
2024/02/04 01:22:37;;;;;;;2.13;1.10;;;;;;;11.30;100.00;101828.59;2088502;28;20184;-64
2024/02/04 01:23:37;;;;;;;1.23;0.90;;;;;;;11.28;100.00;101814.34;2088986;28;20198;-63
2024/02/04 01:24:38;;;;;;;2.20;1.33;;;;;;;11.28;100.00;101817.13;2088181;28;20816;-64
2024/02/04 01:25:38;;;;;;;1.37;0.80;;;;;;;11.32;100.00;101815.13;2088391;28;20665;-64
2024/02/04 01:26:39;;;;;;;1.23;0.87;;;;;;;11.30;100.00;101809.16;2088168;28;20585;-64
2024/02/04 01:27:40;;;;;;;1.00;0.87;;;;;;;11.34;100.00;101813.50;2088281;28;20247;-64
2024/02/04 01:28:40;;;;;;;1.30;1.00;;;;;;;11.31;100.00;101813.50;2079885;28;20188;-63
2024/02/04 01:29:41;;;;;;;1.33;0.90;;;;;;;11.33;100.00;101811.13;2087016;28;20192;-64
2024/02/04 01:30:41;;;;;;;1.40;0.73;;;;;;;10.96;100.00;101766.63;2088721;28;20192;-64
2024/02/04 01:31:42;;;;;;;3.20;1.10;;;;;;;11.38;100.00;101824.56;2088361;28;20241;-64
2024/02/04 01:32:42;;;;;;;3.93;1.13;;;;;;;11.37;100.00;101812.66;2088312;28;20193;-64
2024/02/04 01:33:43;;;;;;;1.43;1.00;;;;;;;11.45;100.00;101822.53;2089049;28;20192;-64
2024/02/04 01:34:43;;;;;;;2.30;1.13;;;;;;;11.41;100.00;101824.53;2088714;28;20201;-63
2024/02/04 01:35:44;;;;;;;1.13;0.97;;;;;;;10.91;100.00;101755.97;2088033;28;20196;-64
2024/02/04 01:36:44;;;;;;;1.23;0.87;;;;;;;11.36;100.00;101804.75;2087549;28;20208;-64
2024/02/04 01:37:48;;;;;;;1.47;1.10;;;;;;;11.50;100.00;101827.66;2088745;28;20192;-64
2024/02/04 01:38:48;;;;;;;3.33;1.13;;;;;;;11.52;100.00;101824.47;2087876;28;20184;-64
2024/02/04 01:39:50;;;;;;;2.37;0.90;;;;;;;11.56;100.00;101836.31;2087732;28;20463;-63
2024/02/04 01:40:52;;;;;;;1.50;0.80;;;;;;;11.59;100.00;101822.41;2088668;28;20249;-64
2024/02/04 01:41:53;;;;;;;1.50;1.00;;;;;;;11.56;100.00;101825.19;2088613;28;20441;-63
2024/02/04 01:42:53;;;;;;;1.53;0.90;;;;;;;11.70;100.00;101827.88;2085840;28;20462;-65
2024/02/04 01:43:54;;;;;;;1.43;0.90;;;;;;;11.69;100.00;101827.09;2088879;28;20192;-64
2024/02/04 01:44:55;;;;;;;2.47;1.00;;;;;;;11.69;100.00;101827.09;2088838;28;20180;-64
2024/02/04 01:45:56;;;;;;;1.37;0.90;;;;;;;11.71;100.00;101827.47;2088589;28;20686;-64
2024/02/04 01:46:57;;;;;;;2.30;1.20;;;;;;;11.76;100.00;101823.47;2088509;28;20193;-64
2024/02/04 01:47:58;;;;;;;2.20;0.80;;;;;;;11.83;100.00;101823.41;2087825;28;20184;-64
2024/02/04 01:48:59;;;;;;;1.97;1.10;;;;;;;11.84;100.00;101834.09;2088023;28;20457;-64
2024/02/04 01:50:01;;;;;;;1.40;1.20;;;;;;;11.85;100.00;101823.78;2087979;28;20215;-64
2024/02/04 01:51:03;;;;;;;2.90;1.17;;;;;;;11.88;100.00;101825.75;2088706;28;20525;-64
2024/02/04 01:52:06;;;;;;;1.17;1.00;;;;;;;11.91;100.00;101820.16;2083113;28;20485;-64
2024/02/04 01:53:07;;;;;;;2.10;1.00;;;;;;;11.91;100.00;101817.38;2087461;28;20430;-64
2024/02/04 01:54:08;;;;;;;1.60;0.80;;;;;;;11.92;100.00;101818.13;2087910;28;20492;-64
2024/02/04 01:55:09;;;;;;;1.90;1.00;;;;;;;11.10;100.00;101683.28;2088600;28;20184;-64
2024/02/04 01:56:11;;;;;;;3.83;1.60;;;;;;;11.98;100.00;101817.28;2088138;28;20431;-65
2024/02/04 01:57:12;;;;;;;1.83;1.10;;;;;;;11.43;100.00;101724.22;2083614;28;20605;-64
2024/02/04 01:58:13;;;;;;;2.40;1.33;;;;;;;12.01;100.00;101822.03;2087921;28;20799;-64
2024/02/04 01:59:14;;;;;;;1.30;0.90;;;;;;;12.00;100.00;101806.53;2088521;28;20448;-64
2024/02/04 02:00:15;;;;;;;1.57;0.90;;;;;;;12.00;100.00;101809.31;2087735;28;20958;-64
2024/02/04 02:01:16;;;;;;;1.60;0.90;;;;;;;11.57;100.00;101746.25;2088787;28;20629;-65
2024/02/04 02:02:16;;;;;;;2.50;1.13;;;;;;;12.03;100.00;101821.59;2087997;28;20192;-64
2024/02/04 02:03:17;;;;;;;1.93;1.10;;;;;;;11.43;100.00;101724.97;2088084;28;20433;-63
2024/02/04 02:04:17;;;;;;;2.37;1.10;;;;;;;11.97;100.00;101812.13;2088491;28;20192;-64
2024/02/04 02:05:18;;;;;;;2.20;1.37;;;;;;;11.42;100.00;101728.97;2088667;28;20184;-63
2024/02/04 02:06:20;;;;;;;2.70;1.10;;;;;;;11.52;100.00;101735.63;2088313;28;20200;-64
2024/02/04 02:07:21;;;;;;;1.63;1.10;;;;;;;12.03;100.00;101813.25;2086210;28;21051;-64
2024/02/04 02:08:21;;;;;;;1.47;1.10;;;;;;;11.60;100.00;101746.28;2087731;28;20536;-64
2024/02/04 02:09:22;;;;;;;1.80;1.10;;;;;;;12.01;100.00;101815.66;2088516;28;20449;-64
2024/02/04 02:10:23;;;;;;;2.20;1.07;;;;;;;12.03;100.00;101816.03;2087426;28;20647;-64
2024/02/04 02:11:40;;;;;;;1.73;1.00;;;;;;;12.04;100.00;101825.97;2088415;28;20270;-65
2024/02/04 02:12:48;;;;;;;3.40;1.23;;;;;;;11.28;100.00;101712.44;2086759;28;20421;-64
2024/02/04 02:13:57;;;;;;;1.57;1.00;;;;;;;12.00;100.00;101817.66;2088482;28;20514;-64
2024/02/04 02:15:05;;;;;;;1.63;1.03;;;;;;;11.95;100.00;101811.75;2087732;28;20942;-64
2024/02/04 02:16:17;;;;;;;1.97;1.00;;;;;;;11.97;100.00;101812.13;2087638;28;20465;-64
2024/02/04 02:17:33;;;;;;;1.50;0.80;;;;;;;11.94;100.00;101813.75;2086401;28;20463;-64
2024/02/04 02:19:01;;;;;;;2.70;1.30;;;;;;;11.94;100.00;101824.84;2086522;28;20928;-64
2024/02/04 02:20:18;;;;;;;1.30;0.80;;;;;;;11.90;100.00;101821.34;2083455;28;20477;-64
2024/02/04 02:21:37;;;;;;;2.17;1.20;;;;;;;11.85;100.00;101813.47;2088352;28;20929;-64
2024/02/04 02:22:48;;;;;;;1.53;0.90;;;;;;;11.66;100.00;101786.28;2088253;28;20407;-64
2024/02/04 02:23:58;;;;;;;2.53;1.27;;;;;;;11.84;100.00;101808.31;2088819;28;21218;-64
2024/02/04 02:24:59;;;;;;;1.30;0.90;;;;;;;11.81;100.00;101811.91;2088983;28;20431;-65
2024/02/04 02:26:00;;;;;;;1.30;0.90;;;;;;;11.73;100.00;101807.63;2088081;28;20462;-64
2024/02/04 02:27:01;;;;;;;1.50;0.93;;;;;;;11.08;100.00;101707.88;2087025;28;20438;-65
2024/02/04 02:28:01;;;;;;;1.87;1.00;;;;;;;10.86;100.00;101681.53;2087424;28;20229;-64
2024/02/04 02:29:02;;;;;;;3.23;1.00;;;;;;;11.73;100.00;101824.31;2087792;28;20195;-64
2024/02/04 02:30:03;;;;;;;3.40;1.27;;;;;;;11.66;100.00;101818.78;2087937;28;20203;-65
2024/02/04 02:31:03;;;;;;;1.13;0.87;;;;;;;11.67;100.00;101814.81;2088773;28;20199;-64
2024/02/04 02:32:04;;;;;;;2.33;1.10;;;;;;;11.62;100.00;101812.47;2088200;28;20259;-64
2024/02/04 02:33:07;;;;;;;1.30;1.00;;;;;;;11.66;100.00;101810.47;2087956;28;20184;-65
2024/02/04 02:34:09;;;;;;;1.57;1.10;;;;;;;11.63;100.00;101805.75;2088349;28;20439;-64
2024/02/04 02:35:11;;;;;;;1.73;1.03;;;;;;;11.45;100.00;101792.00;2087208;28;20442;-64
2024/02/04 02:36:17;;;;;;;1.10;0.80;;;;;;;11.61;100.00;101803.38;2086612;28;20499;-64
2024/02/04 02:37:24;;;;;;;1.33;0.90;;;;;;;11.10;100.00;101747.91;2087867;28;20446;-64
2024/02/04 02:38:36;;;;;;;1.80;0.80;;;;;;;11.52;100.00;101800.25;2087482;28;20449;-64
2024/02/04 02:39:48;;;;;;;1.97;1.13;;;;;;;11.50;100.00;101794.34;2088412;28;20536;-64
2024/02/04 02:41:03;;;;;;;1.27;1.07;;;;;;;11.19;100.00;101752.97;2087757;28;20453;-64
2024/02/04 02:42:05;;;;;;;1.87;0.90;;;;;;;11.12;100.00;101741.94;2088046;28;20439;-64
2024/02/04 02:43:06;;;;;;;1.13;0.80;;;;;;;11.53;100.00;101804.59;2087864;28;20488;-64
2024/02/04 02:44:08;;;;;;;1.03;0.63;;;;;;;11.52;100.00;101805.81;2088028;28;20487;-65
2024/02/04 02:45:11;;;;;;;3.10;0.60;;;;;;;11.47;100.00;101808.25;2088296;28;20435;-65
2024/02/04 02:46:11;;;;;;;2.03;0.83;;;;;;;11.45;100.00;101799.53;2086734;28;20497;-64
2024/02/04 02:47:14;;;;;;;1.63;0.80;;;;;;;11.46;100.00;101803.88;2088163;28;20449;-64
2024/02/04 02:48:15;;;;;;;2.07;1.03;;;;;;;11.45;100.00;101800.31;2086195;28;20992;-64
2024/02/04 02:49:16;;;;;;;3.50;0.80;;;;;;;11.41;100.00;101798.75;2087001;28;20423;-64
2024/02/04 02:50:16;;;;;;;2.93;1.37;;;;;;;11.33;100.00;101800.03;2087134;28;20454;-64
2024/02/04 02:51:17;;;;;;;0.90;0.80;;;;;;;11.34;100.00;101807.16;2088161;28;20274;-64
2024/02/04 02:52:17;;;;;;;1.63;1.00;;;;;;;11.34;100.00;101798.84;2087564;28;20204;-64
2024/02/04 02:53:19;;;;;;;1.93;1.00;;;;;;;10.95;100.00;101742.84;2088443;28;20250;-64
2024/02/04 02:54:20;;;;;;;1.40;0.97;;;;;;;10.96;100.00;101747.22;2086985;28;20206;-65
2024/02/04 02:55:20;;;;;;;1.37;0.90;;;;;;;10.97;100.00;101751.56;2087173;28;20449;-65
2024/02/04 02:56:21;;;;;;;1.07;0.80;;;;;;;11.23;100.00;101790.59;2087275;28;20230;-64
2024/02/04 02:57:21;;;;;;;2.17;1.07;;;;;;;11.24;100.00;101794.16;2087880;28;20187;-64
2024/02/04 02:58:22;;;;;;;1.27;1.00;;;;;;;11.17;100.00;101785.91;2087820;28;20282;-64
2024/02/04 02:59:22;;;;;;;1.30;0.90;;;;;;;11.13;100.00;101796.22;2088796;28;20713;-64
2024/02/04 03:00:23;;;;;;;1.50;0.90;;;;;;;11.11;100.00;101787.50;2088065;28;20279;-64
2024/02/04 03:01:24;;;;;;;3.53;1.00;;;;;;;11.02;100.00;101787.19;2088573;28;20188;-65
2024/02/04 03:02:25;;;;;;;2.50;1.10;;;;;;;10.50;100.00;101708.72;2088159;28;20544;-65
2024/02/04 03:03:25;;;;;;;2.13;0.90;;;;;;;11.03;100.00;101794.31;2086609;28;20568;-64
2024/02/04 03:04:26;;;;;;;2.17;1.23;;;;;;;11.06;100.00;101790.75;2086987;28;20200;-64
2024/02/04 03:05:26;;;;;;;1.93;0.80;;;;;;;11.00;100.00;101792.34;2086895;28;20589;-64
2024/02/04 03:06:27;;;;;;;1.20;1.00;;;;;;;11.02;100.00;101790.75;2088033;28;20681;-64
2024/02/04 03:07:27;;;;;;;2.03;1.13;;;;;;;11.04;100.00;101788.38;2088365;28;20599;-64
2024/02/04 03:08:28;;;;;;;3.10;1.40;;;;;;;11.01;100.00;101794.72;2086312;28;20202;-65
2024/02/04 03:09:28;;;;;;;1.40;0.97;;;;;;;10.99;100.00;101777.72;2087842;28;20226;-64
2024/02/04 03:10:29;;;;;;;1.03;0.80;;;;;;;11.03;100.00;101794.31;2087899;28;20218;-64
2024/02/04 03:11:29;;;;;;;2.00;0.93;;;;;;;11.04;100.00;101784.78;2088072;28;20205;-65
2024/02/04 03:12:30;;;;;;;1.30;0.90;;;;;;;11.07;100.00;101793.09;2087414;28;20197;-64
2024/02/04 03:13:30;;;;;;;2.10;0.87;;;;;;;11.11;100.00;101784.72;2087444;28;20199;-64
2024/02/04 03:14:31;;;;;;;1.57;1.03;;;;;;;10.49;100.00;101700.81;2087417;28;20303;-65
2024/02/04 03:15:31;;;;;;;1.23;0.73;;;;;;;10.97;100.00;101790.41;2088581;28;20608;-64
2024/02/04 03:16:32;;;;;;;1.77;1.03;;;;;;;10.99;100.00;101783.25;2087307;28;20229;-64
2024/02/04 03:17:32;;;;;;;2.33;1.07;;;;;;;10.98;100.00;101787.22;2087371;28;20202;-64
2024/02/04 03:18:33;;;;;;;1.30;0.83;;;;;;;10.92;100.00;101785.28;2085704;28;20196;-64
2024/02/04 03:19:33;;;;;;;1.30;0.83;;;;;;;10.89;100.00;101777.78;2087540;28;20307;-64
2024/02/04 03:20:34;;;;;;;1.23;0.90;;;;;;;10.73;100.00;101760.84;2088289;28;20247;-64
2024/02/04 03:21:34;;;;;;;1.27;1.00;;;;;;;10.84;100.00;101780.97;2087846;28;20219;-64
2024/02/04 03:22:35;;;;;;;1.63;1.00;;;;;;;10.79;100.00;101781.41;2088312;28;20188;-64
2024/02/04 03:23:35;;;;;;;1.63;1.07;;;;;;;10.78;100.00;101788.16;2088495;28;20310;-64
2024/02/04 03:24:36;;;;;;;1.63;1.10;;;;;;;10.78;100.00;101780.63;2087634;28;20188;-65
2024/02/04 03:25:36;;;;;;;1.23;0.80;;;;;;;10.74;100.00;101784.59;2088172;28;20315;-64
2024/02/04 03:26:37;;;;;;;1.00;0.80;;;;;;;10.70;100.00;101781.06;2086476;28;20191;-64
2024/02/04 03:27:40;;;;;;;1.53;0.70;;;;;;;10.74;100.00;101785.41;2087924;28;20608;-65
2024/02/04 03:28:40;;;;;;;1.20;0.80;;;;;;;10.71;100.00;101793.75;2087608;28;20670;-64
2024/02/04 03:29:41;;;;;;;0.63;0.50;;;;;;;10.75;100.00;101786.97;2088257;28;20855;-64
2024/02/04 03:30:41;;;;;;;1.13;0.60;;;;;;;10.77;100.00;101790.13;2086810;28;20542;-64
2024/02/04 03:31:41;;;;;;;1.20;0.60;;;;;;;10.78;100.00;101799.22;2088157;28;20656;-64
2024/02/04 03:32:42;;;;;;;1.20;0.70;;;;;;;10.80;100.00;101785.75;2088275;28;20189;-64
2024/02/04 03:33:42;;;;;;;1.73;0.70;;;;;;;10.87;100.00;101797.56;2088163;28;20192;-64
2024/02/04 03:34:43;;;;;;;2.27;1.10;;;;;;;10.97;100.00;101795.94;2087024;28;20227;-64
2024/02/04 03:35:44;;;;;;;1.30;0.90;;;;;;;11.01;100.00;101797.50;2086561;28;20196;-63
2024/02/04 03:36:44;;;;;;;1.03;0.67;;;;;;;11.03;100.00;101791.53;2086917;28;20685;-65
2024/02/04 03:37:45;;;;;;;0.87;0.80;;;;;;;11.11;100.00;101791.09;2087378;28;20192;-65
2024/02/04 03:38:45;;;;;;;1.20;0.90;;;;;;;10.29;100.00;101672.81;2087297;28;20392;-64
2024/02/04 03:39:46;;;;;;;1.07;0.77;;;;;;;10.03;100.00;101620.72;2087156;28;20212;-65
2024/02/04 03:40:48;;;;;;;2.87;0.80;;;;;;;11.20;100.00;101799.75;2088552;28;20224;-64
2024/02/04 03:41:49;;;;;;;1.13;0.70;;;;;;;11.22;100.00;101797.34;2086269;28;20733;-63
2024/02/04 03:42:50;;;;;;;2.10;0.67;;;;;;;11.23;100.00;101798.91;2088164;28;20803;-64
2024/02/04 03:43:50;;;;;;;0.83;0.60;;;;;;;10.92;100.00;101744.47;2087491;28;20283;-64
2024/02/04 03:44:50;;;;;;;1.43;0.80;;;;;;;11.27;100.00;101794.13;2087266;28;20747;-64
2024/02/04 03:45:51;;;;;;;3.40;0.80;;;;;;;11.31;100.00;101805.19;2087271;28;20727;-64
2024/02/04 03:46:52;;;;;;;2.43;0.90;;;;;;;11.36;100.00;101796.41;2086519;28;20185;-64
2024/02/04 03:47:52;;;;;;;1.90;1.00;;;;;;;11.31;100.00;101789.34;2087234;28;20285;-64
2024/02/04 03:48:52;;;;;;;1.60;0.93;;;;;;;11.44;100.00;101797.94;2087497;28;20670;-63
2024/02/04 03:49:53;;;;;;;1.10;0.80;;;;;;;11.44;100.00;101804.31;2086658;28;20729;-64
2024/02/04 03:50:54;;;;;;;0.90;0.60;;;;;;;11.46;100.00;101793.56;2086878;28;20196;-64
2024/02/04 03:51:54;;;;;;;1.40;0.80;;;;;;;11.49;100.00;101811.41;2088166;28;20245;-63
2024/02/04 03:52:55;;;;;;;0.87;0.70;;;;;;;11.50;100.00;101799.88;2085838;28;20634;-65
2024/02/04 03:53:55;;;;;;;2.07;1.17;;;;;;;11.52;100.00;101785.59;2087082;28;20672;-64
2024/02/04 03:54:57;;;;;;;1.43;0.60;;;;;;;11.61;100.00;101789.50;2087570;28;20263;-64
2024/02/04 03:55:57;;;;;;;2.13;1.17;;;;;;;11.65;100.00;101809.69;2087579;28;20242;-64
2024/02/04 03:56:58;;;;;;;1.33;0.87;;;;;;;11.68;100.00;101808.09;2087200;28;20439;-64
2024/02/04 03:57:58;;;;;;;1.07;0.77;;;;;;;10.77;100.00;101654.25;2087477;28;20192;-63
2024/02/04 03:58:59;;;;;;;2.23;1.10;;;;;;;11.74;100.00;101798.88;2087697;28;20190;-64
2024/02/04 03:59:59;;;;;;;1.43;0.90;;;;;;;11.75;100.00;101800.47;2087965;28;20211;-64
2024/02/04 04:01:00;;;;;;;2.00;1.07;;;;;;;11.64;100.00;101785.88;2088824;28;20188;-64
2024/02/04 04:02:00;;;;;;;1.50;0.90;;;;;;;11.83;100.00;101804.75;2089922;28;20181;-64
2024/02/04 04:03:01;;;;;;;2.30;1.20;;;;;;;11.82;100.00;101797.63;2088882;28;20280;-64
2024/02/04 04:04:02;;;;;;;1.33;0.83;;;;;;;11.10;100.00;101697.97;2087827;28;20188;-63
2024/02/04 04:05:03;;;;;;;2.90;1.30;;;;;;;11.80;100.00;101783.34;2089624;28;20271;-63
2024/02/04 04:06:03;;;;;;;2.57;1.07;;;;;;;11.92;100.00;101807.03;2089503;28;20184;-64
2024/02/04 04:07:04;;;;;;;1.47;0.83;;;;;;;11.97;100.00;101804.59;2088617;28;20192;-63
2024/02/04 04:08:04;;;;;;;1.03;0.90;;;;;;;12.00;100.00;101802.97;2087439;28;20212;-64
2024/02/04 04:09:05;;;;;;;1.63;1.20;;;;;;;12.04;100.00;101809.28;2087660;28;20199;-63
2024/02/04 04:10:06;;;;;;;1.93;0.90;;;;;;;12.06;100.00;101809.66;2090054;28;20621;-64
2024/02/04 04:11:10;;;;;;;1.77;1.00;;;;;;;12.09;100.00;101808.84;2089804;28;20553;-64
2024/02/04 04:12:11;;;;;;;3.07;1.40;;;;;;;12.03;100.00;101804.91;2089654;28;20918;-64
2024/02/04 04:13:12;;;;;;;2.10;1.30;;;;;;;12.12;100.00;101816.34;2089526;28;21039;-64
2024/02/04 04:14:13;;;;;;;2.90;1.20;;;;;;;12.11;100.00;101815.56;2089207;28;20215;-64
2024/02/04 04:15:13;;;;;;;1.33;0.90;;;;;;;12.11;100.00;101821.13;2089472;28;20456;-64
2024/02/04 04:16:14;;;;;;;1.83;1.00;;;;;;;12.13;100.00;101824.25;2089677;28;20192;-64
2024/02/04 04:17:14;;;;;;;2.13;1.30;;;;;;;12.16;100.00;101811.53;2088188;28;20242;-64
2024/02/04 04:18:14;;;;;;;2.07;1.10;;;;;;;12.11;100.00;101823.91;2088771;28;20227;-64
2024/02/04 04:19:15;;;;;;;1.60;1.20;;;;;;;12.09;100.00;101817.94;2090031;28;20242;-64
2024/02/04 04:20:16;;;;;;;2.60;1.27;;;;;;;11.90;100.00;101793.56;2089282;28;20573;-64
2024/02/04 04:21:16;;;;;;;2.77;1.10;;;;;;;12.12;100.00;101830.22;2089621;28;20279;-64
2024/02/04 04:22:17;;;;;;;1.47;0.93;;;;;;;12.12;100.00;101819.09;2088703;28;20681;-64
2024/02/04 04:23:17;;;;;;;2.43;1.30;;;;;;;12.13;100.00;101820.69;2089611;28;20188;-64
2024/02/04 04:24:21;;;;;;;1.87;1.00;;;;;;;12.14;100.00;101814.72;2088649;28;20664;-64
2024/02/04 04:25:22;;;;;;;2.63;1.10;;;;;;;12.17;100.00;101816.69;2088753;28;20225;-64
2024/02/04 04:26:23;;;;;;;2.00;1.07;;;;;;;12.17;100.00;101811.13;2088095;28;20459;-64
2024/02/04 04:27:23;;;;;;;2.07;1.20;;;;;;;12.20;100.00;101820.63;2088872;28;20187;-64
2024/02/04 04:28:24;;;;;;;1.87;0.90;;;;;;;11.40;100.00;101680.63;2089447;28;20186;-64
2024/02/04 04:29:24;;;;;;;2.23;1.20;;;;;;;12.28;100.00;101805.41;2089015;28;20277;-64
2024/02/04 04:30:25;;;;;;;3.50;1.10;;;;;;;12.21;100.00;101806.31;2088657;28;20189;-64
2024/02/04 04:31:25;;;;;;;3.90;1.00;;;;;;;12.10;100.00;101786.19;2089376;28;20579;-64
2024/02/04 04:32:26;;;;;;;1.73;1.00;;;;;;;12.11;100.00;101798.88;2089182;28;20541;-64
2024/02/04 04:33:26;;;;;;;2.07;1.10;;;;;;;12.02;100.00;101795.00;2088946;28;20714;-65
2024/02/04 04:34:27;;;;;;;1.73;1.00;;;;;;;12.07;100.00;101811.22;2088767;28;20557;-64
2024/02/04 04:35:27;;;;;;;2.40;1.00;;;;;;;12.04;100.00;101796.16;2089127;28;20211;-65
2024/02/04 04:36:28;;;;;;;1.67;1.17;;;;;;;12.05;100.00;101796.97;2089484;28;20189;-64
2024/02/04 04:37:28;;;;;;;1.60;0.90;;;;;;;12.06;100.00;101802.13;2088550;28;20190;-64
2024/02/04 04:38:29;;;;;;;1.00;0.80;;;;;;;12.02;100.00;101800.56;2088486;28;20533;-64
2024/02/04 04:39:29;;;;;;;2.03;1.00;;;;;;;11.97;100.00;101798.25;2088925;28;20216;-64
2024/02/04 04:40:31;;;;;;;1.20;1.00;;;;;;;11.87;100.00;101802.72;2088543;28;20186;-64
2024/02/04 04:41:32;;;;;;;2.37;1.20;;;;;;;11.79;100.00;101803.97;2086507;28;20200;-64
2024/02/04 04:42:32;;;;;;;2.07;1.00;;;;;;;11.62;100.00;101777.19;2087468;28;20463;-64